createdAt,value
2018-02-21T00:00:54.605Z,48.33
2018-02-21T00:03:23.116Z,49.50
2018-02-21T00:05:50.792Z,45.70
2018-02-21T00:08:18.761Z,46.07
2018-02-21T00:10:46.376Z,45.53
2018-02-21T00:13:14.063Z,49.30
2018-02-21T00:15:41.696Z,45.53
2018-02-21T00:18:09.308Z,42.73
2018-02-21T00:23:17.223Z,48.80
2018-02-21T00:25:44.917Z,53.93
2018-02-21T00:28:12.534Z,46.13
2018-02-21T00:30:40.165Z,49.40
2018-02-21T00:33:08.515Z,49.27
2018-02-21T00:35:36.139Z,59.53
2018-02-21T00:38:03.775Z,50.90
2018-02-21T00:40:31.454Z,48.00
2018-02-21T00:42:59.099Z,52.33
2018-02-21T00:45:26.701Z,44.17
2018-02-21T00:47:54.377Z,49.20
2018-02-21T00:50:22.008Z,46.27
2018-02-21T00:52:49.638Z,49.37
2018-02-21T00:55:17.312Z,46.27
2018-02-21T01:00:12.558Z,49.33
2018-02-21T01:02:40.246Z,47.60
2018-02-21T01:05:07.882Z,48.43
2018-02-21T01:07:35.504Z,48.27
2018-02-21T01:10:03.209Z,55.03
2018-02-21T01:12:31.296Z,50.10
2018-02-21T01:14:58.953Z,47.30
2018-02-21T01:17:27.075Z,50.17
2018-02-21T01:19:54.699Z,54.03
2018-02-21T01:22:22.333Z,48.03
2018-02-21T01:24:50.012Z,49.67
2018-02-21T01:27:17.889Z,50.63
2018-02-21T01:29:45.514Z,53.00
2018-02-21T01:32:13.199Z,47.83
2018-02-21T01:34:40.826Z,50.70
2018-02-21T01:37:08.439Z,50.97
2018-02-21T01:39:36.118Z,51.33
2018-02-21T01:42:03.746Z,51.13
2018-02-21T01:44:31.379Z,51.97
2018-02-21T01:49:38.194Z,57.80
2018-02-21T01:52:05.865Z,52.47
2018-02-21T01:54:33.492Z,53.07
2018-02-21T01:57:01.111Z,49.57
2018-02-21T01:59:28.796Z,53.77
2018-02-21T02:01:56.422Z,57.03
2018-02-21T02:04:24.048Z,57.13
2018-02-21T02:06:51.752Z,53.90
2018-02-21T02:09:19.376Z,59.30
2018-02-21T02:11:47.159Z,58.23
2018-02-21T02:14:14.847Z,54.50
2018-02-21T02:16:46.658Z,58.63
2018-02-21T02:19:14.338Z,55.03
2018-02-21T02:21:41.965Z,53.83
2018-02-21T02:24:09.604Z,58.50
2018-02-21T02:26:37.610Z,59.50
2018-02-21T02:29:05.239Z,58.70
2018-02-21T02:31:32.864Z,58.23
2018-02-21T02:34:00.541Z,62.67
2018-02-21T02:36:28.157Z,62.27
2018-02-21T02:39:07.621Z,59.43
2018-02-21T02:41:35.248Z,56.47
2018-02-21T02:44:02.876Z,55.67
2018-02-21T02:46:30.588Z,54.63
2018-02-21T02:48:58.219Z,55.43
2018-02-21T02:51:25.847Z,58.80
2018-02-21T02:53:53.530Z,57.33
2018-02-21T02:56:21.155Z,57.70
2018-02-21T02:58:48.797Z,55.83
2018-02-21T03:01:16.478Z,56.17
2018-02-21T03:03:44.112Z,55.07
2018-02-21T03:06:11.751Z,53.40
2018-02-21T03:08:39.442Z,61.17
2018-02-21T03:13:46.213Z,60.40
2018-02-21T03:16:15.578Z,60.80
2018-02-21T03:18:43.524Z,56.83
2018-02-21T03:21:12.437Z,54.17
2018-02-21T03:23:39.984Z,56.63
2018-02-21T03:26:08.125Z,58.13
2018-02-21T03:28:35.815Z,62.57
2018-02-21T03:31:04.019Z,59.33
2018-02-21T03:33:31.639Z,66.07
2018-02-21T03:35:59.324Z,55.87
2018-02-21T03:38:26.973Z,60.53
2018-02-21T03:40:54.606Z,62.10
2018-02-21T03:43:22.292Z,61.20
2018-02-21T03:45:49.928Z,63.17
2018-02-21T03:48:17.559Z,58.57
2018-02-21T03:50:45.237Z,59.83
2018-02-21T03:53:12.861Z,60.37
2018-02-21T03:55:40.497Z,58.03
2018-02-21T03:58:08.180Z,62.33
2018-02-21T04:00:35.816Z,62.93
2018-02-21T04:03:03.447Z,60.93
2018-02-21T04:05:31.145Z,66.47
2018-02-21T04:07:58.771Z,58.80
2018-02-21T04:10:26.393Z,63.83
2018-02-21T04:12:54.076Z,64.13
2018-02-21T04:15:21.713Z,62.23
2018-02-21T04:17:49.336Z,62.80
2018-02-21T04:20:17.016Z,59.70
2018-02-21T04:22:44.641Z,62.73
2018-02-21T04:25:12.326Z,55.63
2018-02-21T04:27:39.969Z,56.80
2018-02-21T04:32:49.357Z,64.95
2018-02-21T04:35:23.412Z,55.70
2018-02-21T04:37:52.694Z,61.00
2018-02-21T04:40:20.326Z,54.13
2018-02-21T04:42:47.969Z,58.63
2018-02-21T04:45:15.665Z,58.90
2018-02-21T04:47:43.300Z,60.20
2018-02-21T04:50:10.925Z,54.47
2018-02-21T04:52:38.603Z,55.83
2018-02-21T04:55:11.944Z,60.43
2018-02-21T04:57:45.289Z,59.63
2018-02-21T05:00:12.909Z,57.27
2018-02-21T05:02:40.976Z,60.67
2018-02-21T05:05:08.656Z,58.63
2018-02-21T05:07:36.290Z,61.70
2018-02-21T05:10:03.915Z,64.63
2018-02-21T05:12:31.593Z,57.47
2018-02-21T05:14:59.268Z,60.70
2018-02-21T05:19:58.685Z,63.93
2018-02-21T05:22:26.312Z,63.93
2018-02-21T05:24:53.937Z,60.07
2018-02-21T05:27:21.636Z,63.47
2018-02-21T05:29:49.302Z,62.20
2018-02-21T05:32:16.922Z,56.00
2018-02-21T05:34:44.614Z,64.33
2018-02-21T05:37:12.247Z,61.27
2018-02-21T05:39:39.884Z,61.87
2018-02-21T05:44:48.694Z,68.65
2018-02-21T05:47:16.389Z,63.33
2018-02-21T05:49:44.010Z,60.83
2018-02-21T05:52:11.636Z,62.13
2018-02-21T05:54:39.328Z,64.33
2018-02-21T05:57:06.965Z,58.33
2018-02-21T05:59:37.658Z,61.23
2018-02-21T06:02:05.631Z,68.20
2018-02-21T06:04:32.966Z,63.23
2018-02-21T06:07:00.593Z,62.73
2018-02-21T06:09:28.393Z,64.30
2018-02-21T06:11:56.033Z,62.20
2018-02-21T06:14:23.684Z,62.27
2018-02-21T06:16:51.383Z,57.50
2018-02-21T06:19:21.071Z,63.03
2018-02-21T06:21:48.703Z,60.37
2018-02-21T06:24:16.381Z,60.33
2018-02-21T06:26:44.010Z,60.60
2018-02-21T06:29:11.638Z,61.13
2018-02-21T06:31:39.340Z,62.13
2018-02-21T06:34:06.959Z,60.93
2018-02-21T06:36:34.596Z,60.67
2018-02-21T06:39:03.709Z,60.10
2018-02-21T06:41:31.335Z,68.13
2018-02-21T06:44:01.142Z,79.63
2018-02-21T06:46:28.835Z,94.03
2018-02-21T06:48:56.840Z,105.43
2018-02-21T06:51:24.337Z,82.57
2018-02-21T06:56:31.233Z,91.25
2018-02-21T06:58:58.048Z,71.10
2018-02-21T07:01:25.670Z,67.30
2018-02-21T07:03:53.302Z,73.83
2018-02-21T07:06:20.974Z,68.60
2018-02-21T07:08:48.603Z,74.13
2018-02-21T07:11:16.697Z,80.70
2018-02-21T07:13:44.395Z,81.43
2018-02-21T07:16:12.037Z,83.00
2018-02-21T07:18:39.656Z,86.50
2018-02-21T07:21:07.386Z,80.63
2018-02-21T07:23:35.008Z,78.30
2018-02-21T07:26:02.642Z,66.50
2018-02-21T07:28:30.329Z,78.10
2018-02-21T07:30:58.016Z,76.90
2018-02-21T07:33:25.586Z,71.83
2018-02-21T07:35:53.275Z,81.83
2018-02-21T07:38:21.400Z,73.80
2018-02-21T07:40:49.032Z,80.67
2018-02-21T07:43:16.745Z,90.27
2018-02-21T07:45:44.364Z,88.23
2018-02-21T07:48:11.994Z,80.93
2018-02-21T07:50:39.686Z,74.67
2018-02-21T07:53:07.305Z,81.77
2018-02-21T07:55:34.934Z,76.60
2018-02-21T07:58:04.521Z,77.67
2018-02-21T08:00:30.239Z,78.23
2018-02-21T08:02:57.897Z,78.17
2018-02-21T08:05:25.575Z,65.70
2018-02-21T08:07:53.210Z,57.90
2018-02-21T08:10:24.260Z,59.43
2018-02-21T08:12:51.940Z,67.23
2018-02-21T08:17:47.195Z,55.13
2018-02-21T08:22:53.960Z,63.60
2018-02-21T08:25:21.650Z,55.50
2018-02-21T08:27:49.270Z,58.13
2018-02-21T08:30:16.896Z,59.47
2018-02-21T08:35:15.371Z,66.13
2018-02-21T08:37:43.006Z,57.70
2018-02-21T08:42:42.397Z,56.83
2018-02-21T08:45:10.474Z,58.53
2018-02-21T08:47:37.960Z,62.07
2018-02-21T08:50:05.586Z,59.67
2018-02-21T08:52:33.209Z,52.07
2018-02-21T08:55:00.880Z,51.13
2018-02-21T08:57:28.509Z,54.73
2018-02-21T08:59:56.135Z,61.00
2018-02-21T09:02:24.975Z,60.43
2018-02-21T09:04:52.610Z,55.03
2018-02-21T09:07:20.261Z,58.97
2018-02-21T09:09:47.952Z,56.43
2018-02-21T09:12:15.578Z,56.83
2018-02-21T09:14:43.201Z,62.00
2018-02-21T09:17:10.903Z,56.40
2018-02-21T09:19:38.533Z,60.17
2018-02-21T09:22:06.161Z,54.63
2018-02-21T09:24:33.833Z,49.50
2018-02-21T09:27:01.463Z,54.10
2018-02-21T09:29:29.087Z,54.60
2018-02-21T09:31:56.773Z,55.10
2018-02-21T09:34:24.398Z,54.00
2018-02-21T09:36:52.980Z,57.93
2018-02-21T09:39:20.664Z,60.97
2018-02-21T09:41:48.298Z,57.60
2018-02-21T09:44:15.918Z,54.73
2018-02-21T09:49:22.703Z,58.97
2018-02-21T09:51:50.394Z,54.67
2018-02-21T09:54:18.012Z,49.47
2018-02-21T09:56:45.641Z,54.23
2018-02-21T09:59:13.317Z,53.47
2018-02-21T10:01:40.960Z,55.73
2018-02-21T10:04:08.594Z,43.70
2018-02-21T10:06:36.272Z,48.70
2018-02-21T10:09:03.915Z,47.87
2018-02-21T10:11:31.530Z,47.20
2018-02-21T10:13:59.205Z,40.20
2018-02-21T10:16:28.491Z,45.13
2018-02-21T10:18:56.111Z,52.30
2018-02-21T10:21:23.792Z,48.23
2018-02-21T10:23:51.428Z,44.17
2018-02-21T10:26:19.055Z,48.73
2018-02-21T10:28:46.735Z,46.30
2018-02-21T10:31:14.364Z,43.17
2018-02-21T10:33:41.987Z,39.30
2018-02-21T10:36:09.664Z,35.37
2018-02-21T10:38:37.301Z,36.27
2018-02-21T10:41:06.823Z,34.20
2018-02-21T10:43:34.522Z,32.87
2018-02-21T10:46:02.144Z,32.37
2018-02-21T10:48:29.775Z,35.80
2018-02-21T10:50:57.448Z,37.90
2018-02-21T10:53:25.078Z,28.10
2018-02-21T10:55:52.706Z,22.23
2018-02-21T10:58:20.388Z,34.57
2018-02-21T11:00:53.570Z,34.13
2018-02-21T11:03:21.251Z,31.70
2018-02-21T11:05:48.882Z,28.40
2018-02-21T11:08:16.508Z,33.63
2018-02-21T11:10:44.229Z,31.93
2018-02-21T11:13:11.812Z,32.37
2018-02-21T11:18:18.585Z,32.72
2018-02-21T11:20:46.210Z,27.03
2018-02-21T11:23:13.846Z,28.93
2018-02-21T11:25:41.538Z,33.17
2018-02-21T11:28:09.154Z,31.57
2018-02-21T11:30:36.785Z,35.87
2018-02-21T11:33:04.478Z,33.63
2018-02-21T11:35:32.104Z,27.57
2018-02-21T11:37:59.750Z,30.10
2018-02-21T11:40:27.418Z,31.37
2018-02-21T11:42:55.043Z,27.13
2018-02-21T11:45:22.653Z,29.93
2018-02-21T11:47:50.339Z,30.63
2018-02-21T11:50:17.977Z,23.93
2018-02-21T11:52:45.597Z,30.93
2018-02-21T11:55:13.533Z,29.83
2018-02-21T11:57:41.210Z,27.50
2018-02-21T12:00:09.046Z,30.43
2018-02-21T12:02:36.735Z,29.37
2018-02-21T12:05:04.368Z,31.17
2018-02-21T12:07:31.990Z,27.00
2018-02-21T12:09:59.666Z,25.17
2018-02-21T12:12:27.374Z,25.93
2018-02-21T12:14:54.991Z,24.80
2018-02-21T12:17:22.672Z,28.40
2018-02-21T12:19:50.293Z,24.07
2018-02-21T12:22:17.913Z,25.13
2018-02-21T12:24:45.590Z,24.70
2018-02-21T12:27:13.216Z,28.17
2018-02-21T12:29:40.840Z,23.73
2018-02-21T12:34:49.047Z,26.55
2018-02-21T12:37:16.718Z,26.90
2018-02-21T12:39:44.333Z,23.43
2018-02-21T12:42:11.967Z,29.13
2018-02-21T12:44:39.648Z,27.33
2018-02-21T12:47:07.296Z,26.03
2018-02-21T12:49:34.908Z,21.43
2018-02-21T12:52:02.593Z,27.47
2018-02-21T12:54:32.443Z,26.10
2018-02-21T12:57:00.075Z,28.50
2018-02-21T12:59:29.819Z,29.20
2018-02-21T13:01:57.448Z,22.57
2018-02-21T13:04:25.075Z,27.77
2018-02-21T13:06:52.801Z,24.43
2018-02-21T13:09:20.867Z,15.20
2018-02-21T13:11:48.537Z,21.20
2018-02-21T13:14:16.188Z,20.50
2018-02-21T13:16:43.807Z,20.53
2018-02-21T13:19:11.440Z,21.13
2018-02-21T13:21:39.126Z,22.03
2018-02-21T13:24:06.770Z,22.77
2018-02-21T13:26:34.414Z,30.83
2018-02-21T13:29:02.085Z,24.53
2018-02-21T13:31:29.708Z,21.73
2018-02-21T13:33:57.344Z,13.43
2018-02-21T13:36:25.024Z,23.23
2018-02-21T13:38:52.656Z,22.47
2018-02-21T13:41:22.031Z,20.43
2018-02-21T13:43:49.794Z,21.63
2018-02-21T13:46:17.416Z,23.93
2018-02-21T13:51:26.196Z,25.70
2018-02-21T13:53:53.816Z,25.23
2018-02-21T13:56:21.444Z,27.00
2018-02-21T13:58:49.120Z,27.80
2018-02-21T14:01:16.751Z,28.17
2018-02-21T14:03:44.382Z,30.00
2018-02-21T14:06:12.062Z,23.80
2018-02-21T14:08:39.691Z,29.27
2018-02-21T14:11:07.323Z,26.40
2018-02-21T14:13:35.017Z,28.53
2018-02-21T14:16:02.636Z,26.63
2018-02-21T14:18:30.257Z,29.70
2018-02-21T14:20:57.938Z,29.63
2018-02-21T14:23:25.565Z,31.10
2018-02-21T14:25:53.193Z,26.03
2018-02-21T14:28:20.876Z,30.90
2018-02-21T14:30:48.500Z,31.17
2018-02-21T14:33:16.131Z,23.67
2018-02-21T14:35:43.811Z,28.37
2018-02-21T14:38:11.443Z,33.57
2018-02-21T14:40:39.071Z,29.90
2018-02-21T14:43:06.749Z,24.90
2018-02-21T14:45:34.379Z,27.43
2018-02-21T14:48:02.009Z,32.73
2018-02-21T14:50:29.701Z,28.87
2018-02-21T14:52:57.335Z,25.87
2018-02-21T14:55:24.952Z,20.43
2018-02-21T14:57:52.643Z,26.60
2018-02-21T15:00:20.264Z,27.57
2018-02-21T15:02:47.891Z,29.60
2018-02-21T15:05:15.571Z,32.20
2018-02-21T15:07:43.226Z,30.03
2018-02-21T15:10:10.836Z,28.43
2018-02-21T15:15:19.675Z,31.20
2018-02-21T15:17:47.299Z,29.07
2018-02-21T15:20:14.916Z,27.37
2018-02-21T15:22:42.552Z,34.03
2018-02-21T15:25:10.233Z,32.70
2018-02-21T15:27:37.869Z,33.77
2018-02-21T15:30:05.487Z,34.20
2018-02-21T15:32:33.167Z,33.33
2018-02-21T15:35:00.784Z,35.20
2018-02-21T15:37:28.422Z,36.40
2018-02-21T15:39:56.094Z,28.70
2018-02-21T15:42:23.724Z,31.77
2018-02-21T15:44:51.344Z,31.47
2018-02-21T15:47:19.030Z,35.17
2018-02-21T15:49:46.667Z,37.60
2018-02-21T15:52:14.278Z,34.87
2018-02-21T15:54:41.971Z,37.87
2018-02-21T15:57:09.632Z,35.60
2018-02-21T15:59:37.259Z,31.27
2018-02-21T16:02:05.013Z,33.37
2018-02-21T16:04:32.634Z,34.40
2018-02-21T16:07:00.257Z,41.97
2018-02-21T16:09:27.946Z,42.67
2018-02-21T16:11:55.581Z,39.33
2018-02-21T16:14:23.202Z,39.77
2018-02-21T16:16:50.885Z,30.00
2018-02-21T16:19:18.505Z,32.83
2018-02-21T16:21:46.129Z,39.80
2018-02-21T16:24:13.807Z,45.33
2018-02-21T16:26:41.441Z,47.83
2018-02-21T16:29:09.062Z,47.67
2018-02-21T16:31:36.740Z,38.10
2018-02-21T16:34:04.376Z,41.20
2018-02-21T16:36:31.998Z,43.83
2018-02-21T16:41:40.777Z,42.70
2018-02-21T16:44:08.477Z,43.37
2018-02-21T16:46:36.076Z,45.83
2018-02-21T16:49:04.029Z,45.57
2018-02-21T16:51:31.697Z,42.77
2018-02-21T16:54:05.048Z,44.17
2018-02-21T16:56:32.723Z,46.87
2018-02-21T16:59:00.354Z,36.03
2018-02-21T17:01:27.976Z,43.10
2018-02-21T17:03:55.659Z,45.30
2018-02-21T17:06:23.768Z,43.37
2018-02-21T17:08:51.395Z,44.93
2018-02-21T17:11:19.094Z,42.23
2018-02-21T17:13:46.718Z,42.93
2018-02-21T17:16:14.348Z,42.40
2018-02-21T17:18:42.035Z,38.33
2018-02-21T17:21:09.667Z,46.97
2018-02-21T17:23:37.293Z,39.97
2018-02-21T17:26:04.993Z,49.53
2018-02-21T17:28:32.642Z,36.77
2018-02-21T17:31:00.233Z,43.43
2018-02-21T17:33:27.915Z,45.23
2018-02-21T17:35:55.538Z,51.57
2018-02-21T17:38:23.164Z,44.43
2018-02-21T17:40:56.413Z,52.10
2018-02-21T17:46:04.491Z,49.58
2018-02-21T17:48:32.111Z,48.77
2018-02-21T17:50:59.816Z,50.23
2018-02-21T17:53:27.502Z,52.80
2018-02-21T17:55:55.148Z,46.13
2018-02-21T17:58:22.805Z,50.57
2018-02-21T18:00:50.459Z,48.37
2018-02-21T18:03:18.142Z,51.80
2018-02-21T18:05:45.721Z,46.67
2018-02-21T18:08:13.393Z,47.77
2018-02-21T18:10:41.016Z,50.20
2018-02-21T18:13:08.645Z,55.87
2018-02-21T18:15:36.326Z,47.37
2018-02-21T18:18:03.948Z,48.87
2018-02-21T18:20:31.569Z,50.17
2018-02-21T18:22:59.254Z,49.60
2018-02-21T18:25:26.883Z,47.53
2018-02-21T18:27:54.513Z,51.00
2018-02-21T18:30:22.200Z,50.47
2018-02-21T18:32:49.832Z,49.57
2018-02-21T18:37:45.156Z,57.73
2018-02-21T18:40:13.635Z,57.63
2018-02-21T18:42:41.268Z,53.67
2018-02-21T18:45:08.948Z,55.03
2018-02-21T18:47:36.581Z,54.27
2018-02-21T18:50:04.221Z,62.30
2018-02-21T18:52:31.919Z,61.43
2018-02-21T18:54:59.542Z,52.03
2018-02-21T18:57:27.163Z,56.60
2018-02-21T18:59:54.842Z,52.77
2018-02-21T19:02:22.480Z,51.40
2018-02-21T19:07:29.278Z,53.15
2018-02-21T19:09:56.915Z,54.10
2018-02-21T19:12:24.568Z,51.50
2018-02-21T19:14:53.548Z,53.07
2018-02-21T19:17:19.930Z,54.90
2018-02-21T19:19:47.539Z,56.57
2018-02-21T19:22:15.260Z,56.73
2018-02-21T19:24:42.894Z,53.83
2018-02-21T19:27:10.509Z,51.43
2018-02-21T19:29:38.213Z,48.57
2018-02-21T19:32:05.879Z,50.90
2018-02-21T19:34:33.527Z,54.10
2018-02-21T19:37:01.263Z,46.03
2018-02-21T19:39:28.899Z,50.57
2018-02-21T19:41:56.530Z,47.33
2018-02-21T19:44:24.248Z,49.80
2018-02-21T19:46:51.885Z,49.40
2018-02-21T19:49:19.511Z,54.13
2018-02-21T19:51:47.192Z,50.23
2018-02-21T19:54:14.816Z,58.63
2018-02-21T19:56:42.443Z,52.70
2018-02-21T19:59:10.123Z,56.73
2018-02-21T20:01:37.760Z,54.73
2018-02-21T20:04:05.501Z,54.77
2018-02-21T20:06:33.261Z,49.50
2018-02-21T20:09:00.915Z,48.30
2018-02-21T20:11:28.538Z,47.63
2018-02-21T20:13:56.250Z,51.77
2018-02-21T20:16:23.907Z,52.70
2018-02-21T20:18:51.546Z,54.27
2018-02-21T20:21:19.243Z,46.87
2018-02-21T20:23:46.940Z,49.70
2018-02-21T20:26:14.570Z,58.50
2018-02-21T20:28:42.251Z,52.97
2018-02-21T20:33:50.702Z,60.30
2018-02-21T20:36:18.099Z,60.13
2018-02-21T20:38:46.222Z,60.20
2018-02-21T20:41:13.927Z,59.33
2018-02-21T20:43:42.035Z,63.83
2018-02-21T20:46:09.672Z,62.83
2018-02-21T20:48:39.000Z,67.37
2018-02-21T20:51:08.977Z,57.73
2018-02-21T20:53:36.580Z,66.20
2018-02-21T20:56:04.589Z,67.07
2018-02-21T20:58:32.232Z,55.13
2018-02-21T21:00:59.863Z,67.03
2018-02-21T21:03:27.565Z,56.97
2018-02-21T21:05:55.609Z,58.60
2018-02-21T21:08:24.047Z,63.03
2018-02-21T21:10:59.174Z,65.67
2018-02-21T21:13:26.860Z,60.67
2018-02-21T21:15:54.502Z,65.57
2018-02-21T21:18:22.225Z,62.13
2018-02-21T21:20:49.876Z,65.13
2018-02-21T21:23:17.790Z,61.77
2018-02-21T21:25:45.532Z,63.00
2018-02-21T21:28:13.152Z,60.97
2018-02-21T21:30:40.798Z,57.80
2018-02-21T21:33:08.504Z,62.63
2018-02-21T21:35:36.170Z,58.03
2018-02-21T21:38:03.819Z,63.63
2018-02-21T21:40:31.523Z,58.23
2018-02-21T21:42:59.175Z,68.77
2018-02-21T21:45:26.867Z,64.37
2018-02-21T21:47:54.558Z,69.30
2018-02-21T21:53:00.807Z,69.07
2018-02-21T21:55:28.440Z,64.37
2018-02-21T21:57:56.084Z,65.87
2018-02-21T22:00:23.772Z,63.77
2018-02-21T22:02:55.935Z,68.07
2018-02-21T22:05:23.631Z,66.67
2018-02-21T22:07:51.263Z,68.53
2018-02-21T22:10:18.899Z,67.80
2018-02-21T22:12:46.587Z,64.13
2018-02-21T22:15:14.235Z,64.17
2018-02-21T22:17:41.871Z,67.10
2018-02-21T22:20:09.556Z,62.43
2018-02-21T22:22:37.191Z,71.60
2018-02-21T22:25:04.816Z,68.67
2018-02-21T22:27:32.506Z,60.40
2018-02-21T22:30:00.150Z,69.07
2018-02-21T22:32:27.768Z,64.70
2018-02-21T22:34:55.474Z,58.83
2018-02-21T22:37:23.112Z,70.60
2018-02-21T22:39:50.750Z,68.23
2018-02-21T22:42:18.436Z,66.50
2018-02-21T22:44:46.068Z,73.07
2018-02-21T22:47:13.696Z,63.77
2018-02-21T22:49:41.384Z,59.40
2018-02-21T22:52:09.014Z,60.63
2018-02-21T22:54:36.633Z,65.67
2018-02-21T22:57:04.320Z,63.13
2018-02-21T22:59:37.295Z,59.17
2018-02-21T23:02:05.031Z,63.13
2018-02-21T23:04:32.682Z,60.27
2018-02-21T23:12:24.197Z,68.03
2018-02-21T23:14:54.352Z,60.87
2018-02-21T23:17:20.491Z,62.77
2018-02-21T23:19:50.380Z,67.37
2018-02-21T23:22:18.058Z,62.30
2018-02-21T23:24:45.689Z,56.90
2018-02-21T23:27:13.366Z,63.00
2018-02-21T23:29:40.987Z,63.53
2018-02-21T23:32:08.616Z,65.37
2018-02-21T23:34:36.244Z,57.27
2018-02-21T23:37:03.931Z,64.97
2018-02-21T23:39:31.560Z,66.27
2018-02-21T23:41:59.195Z,61.93
2018-02-21T23:44:26.867Z,67.30
2018-02-21T23:46:54.494Z,64.33
2018-02-21T23:49:22.126Z,70.23
2018-02-21T23:51:51.699Z,66.23
2018-02-21T23:54:19.323Z,64.83
2018-02-21T23:56:46.951Z,66.73
2018-02-21T23:59:14.637Z,67.40
